Time,TemperatureF,DewpointF,PressureIn,WindDirection,WindDirectionDegrees,WindSpeedMPH,WindSpeedGustMPH,Humidity,HourlyPrecipIn,Conditions,Clouds,dailyrainin,SoftwareType,DateUTC
2013-07-08 00:08:00,54.9,52.0,29.84,SSE,167,0.0,-999.0,91,-99.99,,,0.00,weatherlink.com 1.10,2013-07-08 07:08:00,
2013-07-08 00:23:00,54.9,53.0,29.84,West,272,0.0,-999.0,92,-99.99,,,0.00,weatherlink.com 1.10,2013-07-08 07:23:00,
2013-07-08 00:38:00,55.0,53.0,29.84,WSW,253,1.0,-999.0,92,-99.99,,,0.00,weatherlink.com 1.10,2013-07-08 07:38:00,
2013-07-08 00:53:00,55.0,53.0,29.84,East,82,1.0,-999.0,92,-99.99,,,0.00,weatherlink.com 1.10,2013-07-08 07:53:00,
2013-07-08 01:08:00,55.1,53.0,29.84,NE,38,2.0,-999.0,92,-99.99,,,0.00,weatherlink.com 1.10,2013-07-08 08:08:00,
2013-07-08 01:23:00,55.0,53.0,29.84,West,261,0.0,-999.0,92,-99.99,,,0.00,weatherlink.com 1.10,2013-07-08 08:23:00,
2013-07-08 01:38:00,54.8,53.0,29.84,ENE,67,0.0,-999.0,92,-99.99,,,0.00,weatherlink.com 1.10,2013-07-08 08:38:00,
2013-07-08 01:53:00,54.6,52.0,29.84,SSE,158,1.0,-999.0,91,-99.99,,,0.00,weatherlink.com 1.10,2013-07-08 08:53:00,
2013-07-08 02:08:00,54.5,52.0,29.84,West,273,2.0,-999.0,92,-99.99,,,0.00,weatherlink.com 1.10,2013-07-08 09:08:00,
2013-07-08 02:23:00,54.5,52.0,29.85,SE,138,1.0,-999.0,92,-99.99,,,0.00,weatherlink.com 1.10,2013-07-08 09:23:00,
2013-07-08 02:38:00,54.5,53.0,29.85,West,266,2.0,-999.0,93,-99.99,,,0.00,weatherlink.com 1.10,2013-07-08 09:38:00,
2013-07-08 02:53:00,54.5,53.0,29.85,SW,214,1.0,-999.0,93,-99.99,,,0.00,weatherlink.com 1.10,2013-07-08 09:53:00,
2013-07-08 03:08:00,54.4,53.0,29.85,SE,134,0.0,-999.0,93,-99.99,,,0.00,weatherlink.com 1.10,2013-07-08 10:08:00,
2013-07-08 03:23:00,54.4,53.0,29.85,West,279,3.0,-999.0,93,-99.99,,,0.00,weatherlink.com 1.10,2013-07-08 10:23:00,
2013-07-08 03:38:00,54.4,53.0,29.85,SSE,158,1.0,-999.0,93,-99.99,,,0.00,weatherlink.com 1.10,2013-07-08 10:38:00,
2013-07-08 03:53:00,54.4,53.0,29.85,WNW,291,3.0,-999.0,93,-99.99,,,0.00,weatherlink.com 1.10,2013-07-08 10:53:00,
2013-07-08 04:08:00,54.4,53.0,29.85,NW,306,0.0,-999.0,93,-99.99,,,0.00,weatherlink.com 1.10,2013-07-08 11:08:00,
2013-07-08 04:23:00,54.5,53.0,29.85,SSE,159,0.0,-999.0,94,-99.99,,,0.00,weatherlink.com 1.10,2013-07-08 11:23:00,
2013-07-08 04:38:00,54.5,53.0,29.86,SSE,149,0.0,-999.0,93,-99.99,,,0.00,weatherlink.com 1.10,2013-07-08 11:38:00,
2013-07-08 04:53:00,54.4,53.0,29.86,NE,54,1.0,-999.0,93,-99.99,,,0.00,weatherlink.com 1.10,2013-07-08 11:53:00,
2013-07-08 05:08:00,54.4,53.0,29.86,ESE,113,0.0,-999.0,93,-99.99,,,0.00,weatherlink.com 1.10,2013-07-08 12:08:00,
2013-07-08 05:23:00,54.5,53.0,29.86,ESE,115,0.0,-999.0,93,-99.99,,,0.00,weatherlink.com 1.10,2013-07-08 12:23:00,
2013-07-08 05:39:00,54.5,53.0,29.87,ESE,104,1.0,-999.0,93,-99.99,,,0.00,weatherlink.com 1.10,2013-07-08 12:39:00,
2013-07-08 05:54:00,54.6,53.0,29.87,ENE,69,0.0,-999.0,93,-99.99,,,0.00,weatherlink.com 1.10,2013-07-08 12:54:00,
2013-07-08 06:09:00,54.6,53.0,29.87,NNE,23,4.0,-999.0,93,-99.99,,,0.00,weatherlink.com 1.10,2013-07-08 13:09:00,
2013-07-08 06:24:00,54.6,53.0,29.87,SSE,150,1.0,-999.0,93,-99.99,,,0.00,weatherlink.com 1.10,2013-07-08 13:24:00,
2013-07-08 06:39:00,54.6,52.0,29.88,ESE,123,0.0,-999.0,92,-99.99,,,0.00,weatherlink.com 1.10,2013-07-08 13:39:00,
2013-07-08 06:54:00,54.7,53.0,29.88,ESE,114,0.0,-999.0,93,-99.99,,,0.00,weatherlink.com 1.10,2013-07-08 13:54:00,
2013-07-08 07:09:00,54.8,53.0,29.88,NW,315,0.0,-999.0,92,-99.99,,,0.00,weatherlink.com 1.10,2013-07-08 14:09:00,
2013-07-08 07:24:00,55.0,53.0,29.89,West,261,0.0,-999.0,92,-99.99,,,0.00,weatherlink.com 1.10,2013-07-08 14:24:00,
2013-07-08 07:39:00,55.0,53.0,29.89,SSW,211,1.0,-999.0,91,-99.99,,,0.00,weatherlink.com 1.10,2013-07-08 14:39:00,
2013-07-08 07:54:00,55.2,53.0,29.90,East,84,1.0,-999.0,91,-99.99,,,0.00,weatherlink.com 1.10,2013-07-08 14:54:00,
2013-07-08 08:09:00,55.3,53.0,29.90,West,276,1.0,-999.0,91,-99.99,,,0.00,weatherlink.com 1.10,2013-07-08 15:09:00,
2013-07-08 08:24:00,55.7,53.0,29.90,SSE,167,0.0,-999.0,90,-99.99,,,0.00,weatherlink.com 1.10,2013-07-08 15:24:00,
2013-07-08 08:39:00,56.4,53.0,29.91,SSE,147,4.0,-999.0,89,-99.99,,,0.00,weatherlink.com 1.10,2013-07-08 15:39:00,
2013-07-08 08:54:00,56.8,53.0,29.91,South,186,0.0,-999.0,87,-99.99,,,0.00,weatherlink.com 1.10,2013-07-08 15:54:00,
2013-07-08 09:09:00,57.3,54.0,29.91,SSE,153,0.0,-999.0,87,-99.99,,,0.00,weatherlink.com 1.10,2013-07-08 16:09:00,
2013-07-08 09:24:00,58.4,54.0,29.92,East,93,1.0,-999.0,85,-99.99,,,0.00,weatherlink.com 1.10,2013-07-08 16:24:00,
2013-07-08 09:39:00,59.9,54.0,29.93,SW,218,3.0,-999.0,81,-99.99,,,0.00,weatherlink.com 1.10,2013-07-08 16:39:00,
2013-07-08 09:54:00,60.2,54.0,29.92,WSW,242,1.0,-999.0,80,-99.99,,,0.00,weatherlink.com 1.10,2013-07-08 16:54:00,
2013-07-08 10:09:00,61.2,55.0,29.93,SSE,153,3.0,-999.0,80,-99.99,,,0.00,weatherlink.com 1.10,2013-07-08 17:09:00,
2013-07-08 10:24:00,63.0,55.0,29.93,WNW,286,2.0,-999.0,76,-99.99,,,0.00,weatherlink.com 1.10,2013-07-08 17:24:00,
2013-07-08 10:39:00,64.5,55.0,29.93,ESE,102,4.0,-999.0,72,-99.99,,,0.00,weatherlink.com 1.10,2013-07-08 17:39:00,
2013-07-08 10:54:00,64.1,55.0,29.93,ESE,117,2.0,-999.0,73,-99.99,,,0.00,weatherlink.com 1.10,2013-07-08 17:54:00,
2013-07-08 11:09:00,64.3,55.0,29.93,SE,144,2.0,-999.0,73,-99.99,,,0.00,weatherlink.com 1.10,2013-07-08 18:09:00,
2013-07-08 11:39:00,66.5,56.0,29.93,ESE,103,1.0,-999.0,70,-99.99,,,0.00,weatherlink.com 1.10,2013-07-08 18:39:00,
2013-07-08 12:24:00,68.2,57.0,29.92,ESE,121,1.0,-999.0,67,-99.99,,,0.00,weatherlink.com 1.10,2013-07-08 19:24:00,
2013-07-08 12:39:00,68.6,57.0,29.93,ESE,110,2.0,-999.0,66,-99.99,,,0.00,weatherlink.com 1.10,2013-07-08 19:39:00,
2013-07-08 12:54:00,68.9,57.0,29.92,SSE,157,0.0,-999.0,66,-99.99,,,0.00,weatherlink.com 1.10,2013-07-08 19:54:00,
2013-07-08 13:09:00,70.1,58.0,29.92,SE,128,1.0,-999.0,65,-99.99,,,0.00,weatherlink.com 1.10,2013-07-08 20:09:00,
2013-07-08 13:25:00,70.6,57.0,29.91,East,87,3.0,-999.0,63,-99.99,,,0.00,weatherlink.com 1.10,2013-07-08 20:25:00,
2013-07-08 13:40:00,70.5,57.0,29.91,SE,142,1.0,-999.0,63,-99.99,,,0.00,weatherlink.com 1.10,2013-07-08 20:40:00,
2013-07-08 13:55:00,70.0,57.0,29.91,SE,144,0.0,-999.0,63,-99.99,,,0.00,weatherlink.com 1.10,2013-07-08 20:55:00,
2013-07-08 14:10:00,70.9,58.0,29.90,SE,139,1.0,-999.0,63,-99.99,,,0.00,weatherlink.com 1.10,2013-07-08 21:10:00,
2013-07-08 14:25:00,73.3,58.0,29.90,East,97,1.0,-999.0,59,-99.99,,,0.00,weatherlink.com 1.10,2013-07-08 21:25:00,
2013-07-08 14:40:00,74.8,59.0,29.90,SSE,150,8.0,-999.0,58,-99.99,,,0.00,weatherlink.com 1.10,2013-07-08 21:40:00,
2013-07-08 15:25:00,76.1,59.0,29.90,South,169,3.0,-999.0,55,-99.99,,,0.00,weatherlink.com 1.10,2013-07-08 22:25:00,
2013-07-08 15:40:00,76.6,59.0,29.90,SE,145,2.0,-999.0,54,-99.99,,,0.00,weatherlink.com 1.10,2013-07-08 22:40:00,
2013-07-08 15:55:00,76.4,58.0,29.90,SSW,207,2.0,-999.0,54,-99.99,,,0.00,weatherlink.com 1.10,2013-07-08 22:55:00,
2013-07-08 16:25:00,75.1,58.0,29.90,SE,145,2.0,-999.0,56,-99.99,,,0.00,weatherlink.com 1.10,2013-07-08 23:25:00,
2013-07-08 16:40:00,74.4,58.0,29.90,SSE,167,3.0,-999.0,57,-99.99,,,0.00,weatherlink.com 1.10,2013-07-08 23:40:00,
2013-07-08 17:25:00,73.7,58.0,29.89,East,82,0.0,-999.0,58,-99.99,,,0.00,weatherlink.com 1.10,2013-07-09 00:25:00,
2013-07-08 17:55:00,70.9,57.0,29.88,ESE,102,0.0,-999.0,62,-99.99,,,0.00,weatherlink.com 1.10,2013-07-09 00:55:00,
2013-07-08 18:25:00,70.0,56.0,29.88,South,180,1.0,-999.0,62,-99.99,,,0.00,weatherlink.com 1.10,2013-07-09 01:25:00,
2013-07-08 18:40:00,67.9,56.0,29.89,South,171,2.0,-999.0,66,-99.99,,,0.00,weatherlink.com 1.10,2013-07-09 01:40:00,
2013-07-08 19:10:00,65.2,56.0,29.89,SE,129,0.0,-999.0,71,-99.99,,,0.00,weatherlink.com 1.10,2013-07-09 02:10:00,
2013-07-08 19:25:00,63.8,55.0,29.89,SSW,202,0.0,-999.0,74,-99.99,,,0.00,weatherlink.com 1.10,2013-07-09 02:25:00,
2013-07-08 19:40:00,61.6,55.0,29.90,WNW,294,0.0,-999.0,78,-99.99,,,0.00,weatherlink.com 1.10,2013-07-09 02:40:00,
2013-07-08 19:55:00,60.1,54.0,29.90,East,98,0.0,-999.0,81,-99.99,,,0.00,weatherlink.com 1.10,2013-07-09 02:55:00,
2013-07-08 20:10:00,59.2,54.0,29.90,SSE,160,0.0,-999.0,83,-99.99,,,0.00,weatherlink.com 1.10,2013-07-09 03:10:00,
2013-07-08 20:40:00,57.8,54.0,29.90,West,277,0.0,-999.0,86,-99.99,,,0.00,weatherlink.com 1.10,2013-07-09 03:40:00,
2013-07-08 20:55:00,57.4,54.0,29.91,NW,310,0.0,-999.0,88,-99.99,,,0.00,weatherlink.com 1.10,2013-07-09 03:55:00,
2013-07-08 21:10:00,56.9,54.0,29.91,NW,310,0.0,-999.0,89,-99.99,,,0.00,weatherlink.com 1.10,2013-07-09 04:10:00,
2013-07-08 21:25:00,56.5,53.0,29.92,NW,310,0.0,-999.0,89,-99.99,,,0.00,weatherlink.com 1.10,2013-07-09 04:25:00,
2013-07-08 21:40:00,56.1,53.0,29.92,NW,310,0.0,-999.0,90,-99.99,,,0.00,weatherlink.com 1.10,2013-07-09 04:40:00,
2013-07-08 21:55:00,55.7,53.0,29.93,West,280,0.0,-999.0,91,-99.99,,,0.00,weatherlink.com 1.10,2013-07-09 04:55:00,
2013-07-08 22:10:00,55.3,53.0,29.93,West,279,0.0,-999.0,91,-99.99,,,0.00,weatherlink.com 1.10,2013-07-09 05:10:00,
2013-07-08 22:25:00,54.9,52.0,29.93,West,279,0.0,-999.0,91,-99.99,,,0.00,weatherlink.com 1.10,2013-07-09 05:25:00,
2013-07-08 22:40:00,54.6,52.0,29.94,West,279,0.0,-999.0,92,-99.99,,,0.00,weatherlink.com 1.10,2013-07-09 05:40:00,
2013-07-08 22:55:00,54.4,52.0,29.94,West,279,0.0,-999.0,92,-99.99,,,0.00,weatherlink.com 1.10,2013-07-09 05:55:00,
2013-07-08 23:10:00,54.2,52.0,29.95,West,279,0.0,-999.0,93,-99.99,,,0.00,weatherlink.com 1.10,2013-07-09 06:10:00,
2013-07-08 23:25:00,54.1,52.0,29.95,West,280,0.0,-999.0,93,-99.99,,,0.00,weatherlink.com 1.10,2013-07-09 06:25:00,
2013-07-08 23:40:00,54.0,52.0,29.95,West,279,0.0,-999.0,93,-99.99,,,0.00,weatherlink.com 1.10,2013-07-09 06:40:00,
2013-07-08 23:55:00,53.5,52.0,29.95,West,279,0.0,-999.0,93,-99.99,,,0.00,weatherlink.com 1.10,2013-07-09 06:55:00,